葫芦兄弟 动画片 下载
 找回密碼
 注冊

掃一掃,訪問微社區

【南京站】7月21日公益課程開始眾籌

推薦主題

本版置頂 隱藏置頂帖 那些年,風靡全球的SI,PI,EMC BOOKS(2009--2015)外文版 94人參與 attach_img  ...23456..7 櫻桃海彌 2016-2-2 17:33 92 10146 llg 2019-7-4 10:55
本版置頂 隱藏置頂帖 Designcon 2016 paper 下載站 85人參與 attachment  ...23456..7 shark4685 2016-1-27 11:33 96 16958 wumishi 2019-7-4 15:52
      
[Cadence Sigrity] POWER DC疑問 新人帖 New 郎狼個狼 2019-7-3 08:45 0 80 郎狼個狼 2019-7-3 08:45
[仿真討論] 求信號完整性的書籍。。。 8人參與 New 18662578827 2019-7-2 09:50 8 130 onemore 2019-7-3 08:26
[仿真討論] 差分線間距由什么因素確定? 5人參與 New saladrf 2019-7-1 09:40 8 129 weiimi 2019-7-1 16:59
[仿真討論] 請問反射的量在輸入波形和輸出波形上可以算出來嗎??? 6人參與 attach_img New we167527 2019-6-30 23:04 9 115 we167527 2019-7-2 11:01
[Ansys仿真] HFSS仿真模型報錯 New 魔頭人 2019-6-28 09:54 0 57 魔頭人 2019-6-28 09:54
[仿真討論] 如何針對連接器進行PI仿真 4人參與 briantseng 2019-6-27 10:23 5 107 郎狼個狼 2019-7-2 21:27
[仿真討論] [Cadence Sigrity] brd輸出ODB++文件-轉換工具安裝包 20人參與 attachment  ...2 淡定哥 2019-6-25 16:47 22 171 Richard16888 2019-7-3 16:53
[ADS仿真] ADS射頻電路設計與仿真 入門及應用實例-----電子版 第二貼 13人參與 attachment  ...2 igrdf 2019-6-15 14:02 16 243 Apphia 2019-7-4 15:37
[ADS仿真] ADS射頻電路設計與仿真 入門及應用實例-----電子版 第一帖 7人參與 新人帖 attachment igrdf 2019-6-15 14:00 10 253 eda_oldqiang 2019-7-3 07:18
[Cadence Sigrity] 現在大多數廠商提供的仿真模型都是spice的但allegro sigrity 好像只能用ibis的 4人參與 xl917350795 2019-6-15 10:37 4 225 jackli198323 2019-6-24 11:45
[HyperLynx] brd文件使用hyperlynx轉hyp 文件報錯 3人參與 不期而遇 2019-6-14 09:26 4 127 不期而遇 2019-6-27 16:51
[仿真討論] 什么時候要用AMI模型 8人參與 Lee_G10D0 2019-6-13 10:08 9 143 zzjj44 2019-6-29 11:20
[Cadence Sigrity] Sigrity systemSI ,allgro Sigrity SI一樣嗎 6人參與 新人帖 qq447584497 2019-6-12 18:59 8 176 fyz2324 2019-6-30 20:19
[Cadence Sigrity] 誰有《cadence高速電路設計allegro sigrity SI-PI-EMI書籍》這本書的光盤文件? 10人參與 xl917350795 2019-6-12 14:15 13 256 ylkj123456 2019-7-3 15:55
[仿真討論] 三星ddr4 ibis模型請求 7人參與 新人帖 attachment zz9900 2019-6-11 22:44 7 386 淡定哥 2019-6-24 10:16
[ADS仿真] ADS2019 SI/PI PRO無法使用 11人參與 attachment menghunabc 2019-6-11 16:49 11 340 BrainBUGs 2019-6-27 10:22
[ADS仿真] ADS安裝問題 6人參與 attach_img kevinyuanic 2019-6-11 16:35 6 273 kevinyuanic 2019-7-1 15:42
[ADS仿真] ADS安裝出現這個問題 新人帖 kevinyuanic 2019-6-11 16:32 0 227 kevinyuanic 2019-6-11 16:32
[ADS仿真] ADS仿真報錯 2人參與 attach_img hhh虎次郎 2019-6-11 15:14 2 225 briantseng 2019-6-19 15:41
[Cadence Sigrity] DDR3中DM校驗碼其有效時間判別方式 6人參與 agree clovep 2019-6-10 18:46 6 142 tt1672986 2019-6-20 09:08
[ADS仿真] ADS2019安裝問題 2人參與 attach_img radishoo 2019-6-10 11:11 3 156 jackli198323 2019-6-10 18:31
[ADS仿真] 請教ADS的瞬態仿真步長 7人參與 attach_img hhh虎次郎 2019-6-7 16:56 8 187 antoniofay 2019-6-10 18:53
[Cadence Sigrity] DDR3仿真結果與實際測試相差較大 7人參與 clovep 2019-6-6 10:10 10 244 yuegs21 2019-6-25 15:16
下一頁 »
還可輸入 80 個字符
您需要登錄后才可以發帖 登錄 | 注冊

本版積分規則

EDA365公眾號

關于我們|手機版|EDA365電子論壇網 ( 粵ICP備18020198號 )

GMT+8, 2019-7-4 20:05 , Processed in 0.093750 second(s), 13 queries , Gzip On.

深圳市電巢科技有限公司

地址:深圳市南山區科技生態園1區2棟A座805 電話:19925233282

返回頂部 返回版塊
葫芦兄弟 动画片 下载